Ubon Ratchathani, Thailand

11:11 AM ICT on October 02, 2014 (GMT +0700)
Ubon Ratchathani | Change Station
CLOSE
Current Station
Airport
Location: Ubon Ratchathani,
Elevation: 417 ft
Nearby Weather Stations

Elev 417 ft 15.25 °N, 104.87 °E | Updated 11 minutes ago

Scattered Clouds
Scattered Clouds
88 °F
Feels Like 94 °F
N
2
Wind Variable Wind from South

Today
High -- | Low -- °F
--% Chance of Precip.
Yesterday
High -- | Low -- °F
Precip. -- in
5:50 AM 5:49 PM
First Quarter, 54% visible
Pressure 29.86 in
Visibility 6.2 miles
Clouds Few 2300 ft
Scattered Clouds 30000 ft
Heat Index 94 °F
Dew Point 72 °F
Humidity 58%
Rainfall 0.00 in
Snow Depth Not available.
UV 13 out of 12
Pollen Not available.
Air Quality Not available.
Flu Activity Not available.
METAR VTUU 020400Z 17002KT 9999 FEW023 SCT300 31/22 Q1011 A2985 NOSIG

More Conditions Fewer Conditions

Pressure 29.86 in
Visibility 6.2 miles
Clouds Few 2300 ft
Scattered Clouds 30000 ft
Heat Index 94 °F
Dew Point 72 °F
Humidity 58%
Rainfall 0.00 in
Snow Depth Not available.
UV 13 out of 12
Pollen Not available.
Air Quality Not available.
Flu Activity Not available.
METAR VTUU 020400Z 17002KT 9999 FEW023 SCT300 31/22 Q1011 A2985 NOSIG

More Conditions Fewer Conditions

10-Day Weather Forecast

Almanac

Astronomy

Oct. 02, 2014 Rise Set
Actual Time 5:50 AM ICT 5:49 PM ICT
Civil Twilight 5:28 AM ICT 6:10 PM ICT
Nautical Twilight 5:04 AM ICT 6:35 PM ICT
Astronomical Twilight 4:39 AM ICT 7:00 PM ICT
Moon 12:38 PM ICT No Moon Set
Length of Visible Light 12h 41m
Length of Day
11h 59m
Tomorrow will be 0m 50s shorter.
First Quarter, 54% of the Moon is Illuminated
Today
First Quarter
Oct 8
Full
Oct 15
Last Quarter
Oct 23
New
Oct 30
First Quarter

Yesterday's Extremes

Country Highs Country Lows

Community

WunderPhotos

Upload Photos

1,758,187 photos uploaded!

Nearby

Snow Depth

Not available.

Earthquake Activity

City Distance Mag. Time & Date
No recent earthquake activity has been reported nearby.
Minimum magnitude displayed is 2.5.

Coastal Water Temperatures

Place Temperature
No Stations Reporting

Nearby Weather Stations